sensor_id;sensor_type;location;lat;lon;timestamp;P1;durP1;ratioP1;P2;durP2;ratioP2
55362;SDS011;41244;49.242;9.060;2023-03-08T00:01:01;10.68;;;8.23;;
55362;SDS011;41244;49.242;9.060;2023-03-08T00:03:27;12.43;;;8.15;;
55362;SDS011;41244;49.242;9.060;2023-03-08T00:05:53;12.93;;;8.55;;
55362;SDS011;41244;49.242;9.060;2023-03-08T00:08:23;13.00;;;8.15;;
55362;SDS011;41244;49.242;9.060;2023-03-08T00:10:49;12.05;;;8.75;;
55362;SDS011;41244;49.242;9.060;2023-03-08T00:13:14;14.82;;;9.52;;
55362;SDS011;41244;49.242;9.060;2023-03-08T00:15:40;12.00;;;8.73;;
55362;SDS011;41244;49.242;9.060;2023-03-08T00:18:06;14.35;;;8.80;;
55362;SDS011;41244;49.242;9.060;2023-03-08T00:20:32;14.52;;;8.70;;
55362;SDS011;41244;49.242;9.060;2023-03-08T00:22:58;12.02;;;8.50;;
55362;SDS011;41244;49.242;9.060;2023-03-08T00:25:24;13.23;;;9.05;;
55362;SDS011;41244;49.242;9.060;2023-03-08T00:27:50;13.85;;;9.95;;
55362;SDS011;41244;49.242;9.060;2023-03-08T00:30:16;15.38;;;8.45;;
55362;SDS011;41244;49.242;9.060;2023-03-08T00:32:42;13.38;;;10.05;;
55362;SDS011;41244;49.242;9.060;2023-03-08T00:35:07;16.17;;;8.30;;
55362;SDS011;41244;49.242;9.060;2023-03-08T00:37:33;14.30;;;9.80;;
55362;SDS011;41244;49.242;9.060;2023-03-08T00:39:59;12.88;;;8.48;;
55362;SDS011;41244;49.242;9.060;2023-03-08T00:42:25;16.13;;;10.00;;
55362;SDS011;41244;49.242;9.060;2023-03-08T00:44:51;12.82;;;8.93;;
55362;SDS011;41244;49.242;9.060;2023-03-08T00:47:17;15.20;;;9.65;;
55362;SDS011;41244;49.242;9.060;2023-03-08T00:49:43;15.63;;;9.98;;
55362;SDS011;41244;49.242;9.060;2023-03-08T00:52:09;12.80;;;9.55;;
55362;SDS011;41244;49.242;9.060;2023-03-08T00:54:35;14.27;;;10.25;;
55362;SDS011;41244;49.242;9.060;2023-03-08T00:57:01;11.82;;;8.68;;
55362;SDS011;41244;49.242;9.060;2023-03-08T00:59:27;13.88;;;10.23;;
55362;SDS011;41244;49.242;9.060;2023-03-08T01:01:52;13.80;;;10.25;;
55362;SDS011;41244;49.242;9.060;2023-03-08T01:04:18;14.00;;;9.98;;
55362;SDS011;41244;49.242;9.060;2023-03-08T01:06:44;14.32;;;9.95;;
55362;SDS011;41244;49.242;9.060;2023-03-08T01:09:10;16.67;;;11.07;;
55362;SDS011;41244;49.242;9.060;2023-03-08T01:11:36;12.63;;;9.90;;
55362;SDS011;41244;49.242;9.060;2023-03-08T01:14:02;16.88;;;10.75;;
55362;SDS011;41244;49.242;9.060;2023-03-08T01:16:32;15.00;;;10.32;;
55362;SDS011;41244;49.242;9.060;2023-03-08T01:18:59;13.35;;;9.82;;
55362;SDS011;41244;49.242;9.060;2023-03-08T01:21:25;16.25;;;10.13;;
55362;SDS011;41244;49.242;9.060;2023-03-08T01:23:53;16.50;;;10.88;;
55362;SDS011;41244;49.242;9.060;2023-03-08T01:26:22;15.50;;;10.05;;
55362;SDS011;41244;49.242;9.060;2023-03-08T01:28:50;15.93;;;10.32;;
55362;SDS011;41244;49.242;9.060;2023-03-08T01:31:20;15.68;;;11.05;;
55362;SDS011;41244;49.242;9.060;2023-03-08T01:33:49;14.13;;;10.48;;
55362;SDS011;41244;49.242;9.060;2023-03-08T01:36:16;15.10;;;10.38;;
55362;SDS011;41244;49.242;9.060;2023-03-08T01:38:46;16.17;;;10.20;;
55362;SDS011;41244;49.242;9.060;2023-03-08T01:41:17;15.52;;;10.70;;
55362;SDS011;41244;49.242;9.060;2023-03-08T01:43:49;15.68;;;11.10;;
55362;SDS011;41244;49.242;9.060;2023-03-08T01:46:20;14.27;;;10.77;;
55362;SDS011;41244;49.242;9.060;2023-03-08T01:54:09;13.43;;;9.57;;
55362;SDS011;41244;49.242;9.060;2023-03-08T01:57:48;13.85;;;10.10;;
55362;SDS011;41244;49.242;9.060;2023-03-08T02:00:20;15.05;;;10.48;;
55362;SDS011;41244;49.242;9.060;2023-03-08T02:02:49;15.48;;;10.35;;
55362;SDS011;41244;49.242;9.060;2023-03-08T02:05:20;16.50;;;9.73;;
55362;SDS011;41244;49.242;9.060;2023-03-08T02:07:46;14.60;;;10.32;;
55362;SDS011;41244;49.242;9.060;2023-03-08T02:10:12;16.27;;;10.68;;
55362;SDS011;41244;49.242;9.060;2023-03-08T02:12:38;14.52;;;10.57;;
55362;SDS011;41244;49.242;9.060;2023-03-08T02:15:04;16.40;;;10.50;;
55362;SDS011;41244;49.242;9.060;2023-03-08T02:17:36;17.25;;;9.57;;
55362;SDS011;41244;49.242;9.060;2023-03-08T02:20:07;16.92;;;9.63;;
55362;SDS011;41244;49.242;9.060;2023-03-08T02:22:39;14.07;;;9.63;;
55362;SDS011;41244;49.242;9.060;2023-03-08T02:25:14;16.08;;;10.50;;
55362;SDS011;41244;49.242;9.060;2023-03-08T02:27:49;14.90;;;9.45;;
55362;SDS011;41244;49.242;9.060;2023-03-08T02:30:22;13.23;;;9.50;;
55362;SDS011;41244;49.242;9.060;2023-03-08T02:32:50;19.17;;;10.48;;
55362;SDS011;41244;49.242;9.060;2023-03-08T02:35:16;13.57;;;9.60;;
55362;SDS011;41244;49.242;9.060;2023-03-08T02:37:43;14.38;;;9.95;;
55362;SDS011;41244;49.242;9.060;2023-03-08T02:40:09;13.43;;;9.85;;
55362;SDS011;41244;49.242;9.060;2023-03-08T02:42:35;12.52;;;9.13;;
55362;SDS011;41244;49.242;9.060;2023-03-08T02:45:01;14.00;;;9.95;;
55362;SDS011;41244;49.242;9.060;2023-03-08T02:47:28;14.10;;;10.35;;
55362;SDS011;41244;49.242;9.060;2023-03-08T02:49:53;14.13;;;9.93;;
55362;SDS011;41244;49.242;9.060;2023-03-08T02:52:19;13.90;;;9.98;;
55362;SDS011;41244;49.242;9.060;2023-03-08T02:54:45;13.95;;;8.95;;
55362;SDS011;41244;49.242;9.060;2023-03-08T02:57:11;13.40;;;9.88;;
55362;SDS011;41244;49.242;9.060;2023-03-08T02:59:36;12.20;;;9.10;;
55362;SDS011;41244;49.242;9.060;2023-03-08T03:02:02;14.23;;;9.98;;
55362;SDS011;41244;49.242;9.060;2023-03-08T03:04:29;14.98;;;9.90;;
55362;SDS011;41244;49.242;9.060;2023-03-08T03:06:56;13.27;;;9.18;;
55362;SDS011;41244;49.242;9.060;2023-03-08T03:09:22;15.68;;;10.70;;
55362;SDS011;41244;49.242;9.060;2023-03-08T03:11:48;15.10;;;9.95;;
55362;SDS011;41244;49.242;9.060;2023-03-08T03:14:13;13.15;;;9.60;;
55362;SDS011;41244;49.242;9.060;2023-03-08T03:16:39;13.77;;;9.13;;
55362;SDS011;41244;49.242;9.060;2023-03-08T03:19:05;15.43;;;10.60;;
55362;SDS011;41244;49.242;9.060;2023-03-08T03:21:31;13.93;;;9.45;;
55362;SDS011;41244;49.242;9.060;2023-03-08T03:23:57;13.77;;;9.82;;
55362;SDS011;41244;49.242;9.060;2023-03-08T03:26:23;13.85;;;9.73;;
55362;SDS011;41244;49.242;9.060;2023-03-08T03:28:49;13.13;;;9.57;;
55362;SDS011;41244;49.242;9.060;2023-03-08T03:31:20;13.35;;;9.70;;
55362;SDS011;41244;49.242;9.060;2023-03-08T03:33:47;16.77;;;9.63;;
55362;SDS011;41244;49.242;9.060;2023-03-08T03:36:14;13.63;;;9.57;;
55362;SDS011;41244;49.242;9.060;2023-03-08T03:38:42;16.02;;;10.48;;
55362;SDS011;41244;49.242;9.060;2023-03-08T03:41:10;14.85;;;9.65;;
55362;SDS011;41244;49.242;9.060;2023-03-08T03:43:39;15.40;;;9.15;;
55362;SDS011;41244;49.242;9.060;2023-03-08T03:46:07;14.20;;;9.23;;
55362;SDS011;41244;49.242;9.060;2023-03-08T03:48:35;14.27;;;9.35;;
55362;SDS011;41244;49.242;9.060;2023-03-08T03:51:06;13.65;;;9.65;;
55362;SDS011;41244;49.242;9.060;2023-03-08T03:53:35;15.85;;;9.55;;
55362;SDS011;41244;49.242;9.060;2023-03-08T03:56:09;14.38;;;9.95;;
55362;SDS011;41244;49.242;9.060;2023-03-08T03:58:55;13.63;;;9.43;;
55362;SDS011;41244;49.242;9.060;2023-03-08T04:01:22;14.07;;;10.10;;
55362;SDS011;41244;49.242;9.060;2023-03-08T04:03:51;14.25;;;9.65;;
55362;SDS011;41244;49.242;9.060;2023-03-08T04:06:19;12.88;;;9.52;;
55362;SDS011;41244;49.242;9.060;2023-03-08T04:08:57;17.13;;;10.10;;
55362;SDS011;41244;49.242;9.060;2023-03-08T04:11:32;14.63;;;9.52;;
55362;SDS011;41244;49.242;9.060;2023-03-08T04:14:00;14.55;;;10.18;;
55362;SDS011;41244;49.242;9.060;2023-03-08T04:16:28;15.02;;;9.90;;
55362;SDS011;41244;49.242;9.060;2023-03-08T04:19:00;14.25;;;9.13;;
55362;SDS011;41244;49.242;9.060;2023-03-08T04:21:29;17.55;;;10.02;;
55362;SDS011;41244;49.242;9.060;2023-03-08T04:23:56;13.70;;;9.50;;
55362;SDS011;41244;49.242;9.060;2023-03-08T04:26:23;18.30;;;10.93;;
55362;SDS011;41244;49.242;9.060;2023-03-08T04:28:49;13.88;;;9.68;;
55362;SDS011;41244;49.242;9.060;2023-03-08T04:31:16;18.42;;;10.02;;
55362;SDS011;41244;49.242;9.060;2023-03-08T04:33:43;15.93;;;9.70;;
55362;SDS011;41244;49.242;9.060;2023-03-08T04:36:09;12.98;;;9.13;;
55362;SDS011;41244;49.242;9.060;2023-03-08T04:38:36;14.63;;;9.98;;
55362;SDS011;41244;49.242;9.060;2023-03-08T04:41:03;13.57;;;9.25;;
55362;SDS011;41244;49.242;9.060;2023-03-08T04:43:34;16.35;;;9.20;;
55362;SDS011;41244;49.242;9.060;2023-03-08T04:46:00;14.82;;;10.75;;
55362;SDS011;41244;49.242;9.060;2023-03-08T04:48:26;28.95;;;16.48;;
55362;SDS011;41244;49.242;9.060;2023-03-08T04:50:52;14.93;;;10.88;;
55362;SDS011;41244;49.242;9.060;2023-03-08T04:53:20;16.90;;;10.43;;
55362;SDS011;41244;49.242;9.060;2023-03-08T04:55:47;15.95;;;10.30;;
55362;SDS011;41244;49.242;9.060;2023-03-08T04:58:13;16.20;;;9.55;;
55362;SDS011;41244;49.242;9.060;2023-03-08T05:00:39;14.73;;;9.80;;
55362;SDS011;41244;49.242;9.060;2023-03-08T05:03:05;19.70;;;10.70;;
55362;SDS011;41244;49.242;9.060;2023-03-08T05:05:31;16.23;;;10.10;;
55362;SDS011;41244;49.242;9.060;2023-03-08T05:07:56;14.75;;;10.48;;
55362;SDS011;41244;49.242;9.060;2023-03-08T05:10:29;15.32;;;9.98;;
55362;SDS011;41244;49.242;9.060;2023-03-08T05:12:56;15.18;;;10.18;;
55362;SDS011;41244;49.242;9.060;2023-03-08T05:15:22;16.35;;;10.35;;
55362;SDS011;41244;49.242;9.060;2023-03-08T05:17:48;15.15;;;9.80;;
55362;SDS011;41244;49.242;9.060;2023-03-08T05:20:15;19.58;;;9.98;;
55362;SDS011;41244;49.242;9.060;2023-03-08T05:22:41;18.92;;;10.32;;
55362;SDS011;41244;49.242;9.060;2023-03-08T05:25:07;15.02;;;11.07;;
55362;SDS011;41244;49.242;9.060;2023-03-08T05:27:34;14.52;;;10.20;;
55362;SDS011;41244;49.242;9.060;2023-03-08T05:30:00;21.42;;;13.18;;
55362;SDS011;41244;49.242;9.060;2023-03-08T05:32:27;17.33;;;11.60;;
55362;SDS011;41244;49.242;9.060;2023-03-08T05:34:53;23.30;;;12.35;;
55362;SDS011;41244;49.242;9.060;2023-03-08T05:37:18;20.00;;;11.88;;
55362;SDS011;41244;49.242;9.060;2023-03-08T05:39:46;14.88;;;10.63;;
55362;SDS011;41244;49.242;9.060;2023-03-08T05:42:12;16.30;;;9.95;;
55362;SDS011;41244;49.242;9.060;2023-03-08T05:44:38;16.58;;;10.20;;
55362;SDS011;41244;49.242;9.060;2023-03-08T05:47:03;18.25;;;10.55;;
55362;SDS011;41244;49.242;9.060;2023-03-08T05:49:29;20.83;;;11.07;;
55362;SDS011;41244;49.242;9.060;2023-03-08T05:51:55;14.75;;;10.35;;
55362;SDS011;41244;49.242;9.060;2023-03-08T05:54:21;14.50;;;9.95;;
55362;SDS011;41244;49.242;9.060;2023-03-08T05:56:47;14.30;;;10.38;;
55362;SDS011;41244;49.242;9.060;2023-03-08T05:59:13;15.20;;;9.60;;
55362;SDS011;41244;49.242;9.060;2023-03-08T06:01:38;13.43;;;9.90;;
55362;SDS011;41244;49.242;9.060;2023-03-08T06:04:04;17.08;;;10.18;;
55362;SDS011;41244;49.242;9.060;2023-03-08T06:06:30;17.88;;;10.48;;
55362;SDS011;41244;49.242;9.060;2023-03-08T06:08:56;14.93;;;10.20;;
55362;SDS011;41244;49.242;9.060;2023-03-08T06:11:22;14.65;;;9.95;;
55362;SDS011;41244;49.242;9.060;2023-03-08T06:13:48;20.60;;;11.75;;
55362;SDS011;41244;49.242;9.060;2023-03-08T06:16:14;19.45;;;12.32;;
55362;SDS011;41244;49.242;9.060;2023-03-08T06:18:40;20.23;;;11.32;;
55362;SDS011;41244;49.242;9.060;2023-03-08T06:21:08;24.65;;;12.65;;
55362;SDS011;41244;49.242;9.060;2023-03-08T06:23:43;30.85;;;13.27;;
55362;SDS011;41244;49.242;9.060;2023-03-08T06:26:10;28.38;;;13.40;;
55362;SDS011;41244;49.242;9.060;2023-03-08T06:28:36;19.48;;;11.63;;
55362;SDS011;41244;49.242;9.060;2023-03-08T06:31:04;20.52;;;11.30;;
55362;SDS011;41244;49.242;9.060;2023-03-08T06:33:31;20.42;;;10.13;;
55362;SDS011;41244;49.242;9.060;2023-03-08T06:38:27;25.13;;;11.95;;
55362;SDS011;41244;49.242;9.060;2023-03-08T06:40:55;18.98;;;11.80;;
55362;SDS011;41244;49.242;9.060;2023-03-08T06:43:21;29.45;;;12.50;;
55362;SDS011;41244;49.242;9.060;2023-03-08T06:45:47;22.90;;;12.00;;
55362;SDS011;41244;49.242;9.060;2023-03-08T06:48:13;20.08;;;14.65;;
55362;SDS011;41244;49.242;9.060;2023-03-08T06:50:39;19.48;;;11.93;;
55362;SDS011;41244;49.242;9.060;2023-03-08T06:53:05;17.50;;;12.60;;
55362;SDS011;41244;49.242;9.060;2023-03-08T06:55:33;25.15;;;12.82;;
55362;SDS011;41244;49.242;9.060;2023-03-08T06:58:00;17.83;;;12.93;;
55362;SDS011;41244;49.242;9.060;2023-03-08T07:00:26;18.17;;;12.43;;
55362;SDS011;41244;49.242;9.060;2023-03-08T07:02:52;22.40;;;12.82;;
55362;SDS011;41244;49.242;9.060;2023-03-08T07:05:18;22.02;;;12.25;;
55362;SDS011;41244;49.242;9.060;2023-03-08T07:07:44;24.42;;;12.52;;
55362;SDS011;41244;49.242;9.060;2023-03-08T07:10:11;19.67;;;12.63;;
55362;SDS011;41244;49.242;9.060;2023-03-08T07:12:42;24.65;;;13.68;;
55362;SDS011;41244;49.242;9.060;2023-03-08T07:15:12;20.95;;;12.65;;
55362;SDS011;41244;49.242;9.060;2023-03-08T07:17:43;27.75;;;14.07;;
55362;SDS011;41244;49.242;9.060;2023-03-08T07:20:11;24.92;;;14.73;;
55362;SDS011;41244;49.242;9.060;2023-03-08T07:22:42;20.08;;;12.55;;
55362;SDS011;41244;49.242;9.060;2023-03-08T07:25:15;34.67;;;16.13;;
55362;SDS011;41244;49.242;9.060;2023-03-08T07:27:43;22.10;;;14.15;;
55362;SDS011;41244;49.242;9.060;2023-03-08T07:30:10;31.50;;;16.85;;
55362;SDS011;41244;49.242;9.060;2023-03-08T07:32:38;32.72;;;15.93;;
55362;SDS011;41244;49.242;9.060;2023-03-08T07:35:06;23.02;;;13.10;;
55362;SDS011;41244;49.242;9.060;2023-03-08T07:37:33;23.33;;;13.70;;
55362;SDS011;41244;49.242;9.060;2023-03-08T07:39:59;18.00;;;11.80;;
55362;SDS011;41244;49.242;9.060;2023-03-08T07:42:25;17.42;;;11.77;;
55362;SDS011;41244;49.242;9.060;2023-03-08T07:44:51;26.55;;;18.00;;
55362;SDS011;41244;49.242;9.060;2023-03-08T07:47:17;19.70;;;12.35;;
55362;SDS011;41244;49.242;9.060;2023-03-08T07:49:43;20.23;;;12.00;;
55362;SDS011;41244;49.242;9.060;2023-03-08T07:52:09;17.85;;;12.10;;
55362;SDS011;41244;49.242;9.060;2023-03-08T07:54:35;16.08;;;11.20;;
55362;SDS011;41244;49.242;9.060;2023-03-08T07:57:01;19.42;;;12.68;;
55362;SDS011;41244;49.242;9.060;2023-03-08T07:59:27;51.45;;;23.13;;
55362;SDS011;41244;49.242;9.060;2023-03-08T08:01:52;22.02;;;13.20;;
55362;SDS011;41244;49.242;9.060;2023-03-08T08:04:18;42.00;;;20.17;;
55362;SDS011;41244;49.242;9.060;2023-03-08T08:06:46;40.35;;;20.70;;
55362;SDS011;41244;49.242;9.060;2023-03-08T08:09:12;21.48;;;13.35;;
55362;SDS011;41244;49.242;9.060;2023-03-08T08:11:38;18.90;;;12.45;;
55362;SDS011;41244;49.242;9.060;2023-03-08T08:14:05;21.13;;;13.20;;
55362;SDS011;41244;49.242;9.060;2023-03-08T08:16:31;23.23;;;14.80;;
55362;SDS011;41244;49.242;9.060;2023-03-08T08:18:57;29.42;;;18.83;;
55362;SDS011;41244;49.242;9.060;2023-03-08T08:21:23;30.83;;;18.83;;
55362;SDS011;41244;49.242;9.060;2023-03-08T08:23:49;33.63;;;20.98;;
55362;SDS011;41244;49.242;9.060;2023-03-08T08:26:16;19.90;;;13.70;;
55362;SDS011;41244;49.242;9.060;2023-03-08T08:28:46;19.17;;;13.23;;
55362;SDS011;41244;49.242;9.060;2023-03-08T08:31:17;19.88;;;12.20;;
55362;SDS011;41244;49.242;9.060;2023-03-08T08:33:48;18.23;;;12.25;;
55362;SDS011;41244;49.242;9.060;2023-03-08T08:36:15;19.48;;;13.10;;
55362;SDS011;41244;49.242;9.060;2023-03-08T08:38:43;18.90;;;12.88;;
55362;SDS011;41244;49.242;9.060;2023-03-08T08:41:10;20.08;;;12.90;;
55362;SDS011;41244;49.242;9.060;2023-03-08T08:43:41;25.80;;;13.40;;
55362;SDS011;41244;49.242;9.060;2023-03-08T08:46:08;25.13;;;13.60;;
55362;SDS011;41244;49.242;9.060;2023-03-08T08:48:34;19.85;;;13.13;;
55362;SDS011;41244;49.242;9.060;2023-03-08T08:51:02;23.40;;;13.35;;
55362;SDS011;41244;49.242;9.060;2023-03-08T08:53:29;20.67;;;13.25;;
55362;SDS011;41244;49.242;9.060;2023-03-08T08:55:55;23.63;;;13.32;;
55362;SDS011;41244;49.242;9.060;2023-03-08T08:58:21;22.35;;;14.05;;
55362;SDS011;41244;49.242;9.060;2023-03-08T09:00:47;21.65;;;13.35;;
55362;SDS011;41244;49.242;9.060;2023-03-08T09:03:13;22.83;;;14.52;;
55362;SDS011;41244;49.242;9.060;2023-03-08T09:05:40;23.70;;;14.40;;
55362;SDS011;41244;49.242;9.060;2023-03-08T09:08:11;23.67;;;14.63;;
55362;SDS011;41244;49.242;9.060;2023-03-08T09:10:37;22.83;;;14.23;;
55362;SDS011;41244;49.242;9.060;2023-03-08T09:13:04;24.30;;;15.73;;
55362;SDS011;41244;49.242;9.060;2023-03-08T09:15:30;22.73;;;14.15;;
55362;SDS011;41244;49.242;9.060;2023-03-08T09:17:56;26.80;;;14.38;;
55362;SDS011;41244;49.242;9.060;2023-03-08T09:20:22;20.58;;;14.18;;
55362;SDS011;41244;49.242;9.060;2023-03-08T09:22:48;23.02;;;14.60;;
55362;SDS011;41244;49.242;9.060;2023-03-08T09:25:14;54.80;;;30.48;;
55362;SDS011;41244;49.242;9.060;2023-03-08T09:27:40;24.88;;;16.20;;
55362;SDS011;41244;49.242;9.060;2023-03-08T09:30:10;24.40;;;15.93;;
55362;SDS011;41244;49.242;9.060;2023-03-08T09:32:38;22.60;;;14.10;;
55362;SDS011;41244;49.242;9.060;2023-03-08T09:35:04;21.13;;;14.05;;
55362;SDS011;41244;49.242;9.060;2023-03-08T09:37:30;20.35;;;13.48;;
55362;SDS011;41244;49.242;9.060;2023-03-08T09:39:56;20.33;;;14.70;;
55362;SDS011;41244;49.242;9.060;2023-03-08T09:42:23;22.35;;;14.68;;
55362;SDS011;41244;49.242;9.060;2023-03-08T09:50:39;26.17;;;14.82;;
55362;SDS011;41244;49.242;9.060;2023-03-08T09:54:01;26.23;;;16.55;;
55362;SDS011;41244;49.242;9.060;2023-03-08T09:56:35;22.85;;;14.73;;
55362;SDS011;41244;49.242;9.060;2023-03-08T09:59:11;24.10;;;16.15;;
55362;SDS011;41244;49.242;9.060;2023-03-08T10:01:53;26.15;;;17.40;;
55362;SDS011;41244;49.242;9.060;2023-03-08T10:04:50;23.98;;;15.45;;
55362;SDS011;41244;49.242;9.060;2023-03-08T10:07:43;25.10;;;16.50;;
55362;SDS011;41244;49.242;9.060;2023-03-08T10:10:52;24.75;;;16.42;;
55362;SDS011;41244;49.242;9.060;2023-03-08T10:21:40;27.33;;;17.77;;
55362;SDS011;41244;49.242;9.060;2023-03-08T10:24:23;25.73;;;16.35;;
55362;SDS011;41244;49.242;9.060;2023-03-08T10:26:59;24.95;;;17.50;;
55362;SDS011;41244;49.242;9.060;2023-03-08T10:29:56;26.98;;;16.45;;
55362;SDS011;41244;49.242;9.060;2023-03-08T10:32:24;32.33;;;18.90;;
55362;SDS011;41244;49.242;9.060;2023-03-08T10:34:51;29.35;;;18.77;;
55362;SDS011;41244;49.242;9.060;2023-03-08T10:37:28;26.95;;;17.30;;
55362;SDS011;41244;49.242;9.060;2023-03-08T10:39:56;29.15;;;18.88;;
55362;SDS011;41244;49.242;9.060;2023-03-08T10:42:27;28.10;;;18.40;;
55362;SDS011;41244;49.242;9.060;2023-03-08T10:47:35;31.10;;;18.58;;
55362;SDS011;41244;49.242;9.060;2023-03-08T10:50:20;28.95;;;18.02;;
55362;SDS011;41244;49.242;9.060;2023-03-08T10:52:54;26.52;;;17.58;;
55362;SDS011;41244;49.242;9.060;2023-03-08T10:55:22;30.08;;;18.40;;
55362;SDS011;41244;49.242;9.060;2023-03-08T10:57:57;26.63;;;17.73;;
55362;SDS011;41244;49.242;9.060;2023-03-08T11:00:32;27.13;;;18.02;;
55362;SDS011;41244;49.242;9.060;2023-03-08T11:03:16;26.67;;;17.55;;
55362;SDS011;41244;49.242;9.060;2023-03-08T11:05:54;31.20;;;18.25;;
55362;SDS011;41244;49.242;9.060;2023-03-08T11:08:34;28.95;;;16.38;;
55362;SDS011;41244;49.242;9.060;2023-03-08T11:11:03;28.65;;;17.90;;
55362;SDS011;41244;49.242;9.060;2023-03-08T11:13:38;30.45;;;17.58;;
55362;SDS011;41244;49.242;9.060;2023-03-08T11:31:21;30.88;;;19.63;;
55362;SDS011;41244;49.242;9.060;2023-03-08T11:36:55;30.17;;;19.88;;
55362;SDS011;41244;49.242;9.060;2023-03-08T11:40:34;31.70;;;18.83;;
55362;SDS011;41244;49.242;9.060;2023-03-08T11:45:34;29.10;;;20.00;;
55362;SDS011;41244;49.242;9.060;2023-03-08T12:04:29;25.50;;;17.33;;
55362;SDS011;41244;49.242;9.060;2023-03-08T12:07:01;40.47;;;22.80;;
55362;SDS011;41244;49.242;9.060;2023-03-08T12:09:33;120.72;;;52.25;;
55362;SDS011;41244;49.242;9.060;2023-03-08T12:12:27;65.05;;;32.22;;
55362;SDS011;41244;49.242;9.060;2023-03-08T12:17:46;36.65;;;22.27;;
55362;SDS011;41244;49.242;9.060;2023-03-08T12:20:21;29.13;;;18.98;;
55362;SDS011;41244;49.242;9.060;2023-03-08T12:22:56;29.17;;;18.95;;
55362;SDS011;41244;49.242;9.060;2023-03-08T12:25:54;23.13;;;16.17;;
55362;SDS011;41244;49.242;9.060;2023-03-08T12:28:37;28.17;;;17.27;;
55362;SDS011;41244;49.242;9.060;2023-03-08T12:33:53;27.42;;;18.30;;
55362;SDS011;41244;49.242;9.060;2023-03-08T12:36:21;28.88;;;19.10;;
55362;SDS011;41244;49.242;9.060;2023-03-08T12:39:06;33.50;;;21.35;;
55362;SDS011;41244;49.242;9.060;2023-03-08T12:41:55;30.15;;;19.05;;
55362;SDS011;41244;49.242;9.060;2023-03-08T12:44:34;26.70;;;17.20;;
55362;SDS011;41244;49.242;9.060;2023-03-08T12:47:01;23.88;;;16.95;;
55362;SDS011;41244;49.242;9.060;2023-03-08T12:49:48;28.20;;;17.63;;
55362;SDS011;41244;49.242;9.060;2023-03-08T12:54:54;22.65;;;16.70;;
55362;SDS011;41244;49.242;9.060;2023-03-08T12:57:23;23.85;;;16.17;;
55362;SDS011;41244;49.242;9.060;2023-03-08T13:02:59;26.40;;;17.98;;
55362;SDS011;41244;49.242;9.060;2023-03-08T13:05:30;34.95;;;24.40;;
55362;SDS011;41244;49.242;9.060;2023-03-08T13:10:38;30.27;;;17.92;;
55362;SDS011;41244;49.242;9.060;2023-03-08T13:16:05;27.80;;;18.25;;
55362;SDS011;41244;49.242;9.060;2023-03-08T13:18:46;24.95;;;17.63;;
55362;SDS011;41244;49.242;9.060;2023-03-08T13:21:19;27.15;;;17.73;;
55362;SDS011;41244;49.242;9.060;2023-03-08T13:24:00;28.50;;;18.55;;
55362;SDS011;41244;49.242;9.060;2023-03-08T13:27:12;30.05;;;19.58;;
55362;SDS011;41244;49.242;9.060;2023-03-08T13:29:51;29.20;;;19.48;;
55362;SDS011;41244;49.242;9.060;2023-03-08T13:32:19;26.65;;;18.27;;
55362;SDS011;41244;49.242;9.060;2023-03-08T13:34:56;40.97;;;25.65;;
55362;SDS011;41244;49.242;9.060;2023-03-08T13:37:27;30.90;;;21.20;;
55362;SDS011;41244;49.242;9.060;2023-03-08T13:39:55;30.75;;;21.00;;
55362;SDS011;41244;49.242;9.060;2023-03-08T13:42:26;27.35;;;19.95;;
55362;SDS011;41244;49.242;9.060;2023-03-08T13:45:03;25.77;;;18.13;;
55362;SDS011;41244;49.242;9.060;2023-03-08T13:47:40;25.52;;;17.83;;
55362;SDS011;41244;49.242;9.060;2023-03-08T13:50:15;30.08;;;17.73;;
55362;SDS011;41244;49.242;9.060;2023-03-08T13:52:46;11.70;;;9.30;;
55362;SDS011;41244;49.242;9.060;2023-03-08T13:55:15;7.93;;;6.63;;
55362;SDS011;41244;49.242;9.060;2023-03-08T13:57:46;4.28;;;3.50;;
55362;SDS011;41244;49.242;9.060;2023-03-08T14:00:55;4.30;;;3.25;;
55362;SDS011;41244;49.242;9.060;2023-03-08T14:03:17;4.25;;;2.92;;
55362;SDS011;41244;49.242;9.060;2023-03-08T14:05:44;3.10;;;2.70;;
55362;SDS011;41244;49.242;9.060;2023-03-08T14:08:20;3.15;;;2.85;;
55362;SDS011;41244;49.242;9.060;2023-03-08T14:10:54;3.13;;;2.72;;
55362;SDS011;41244;49.242;9.060;2023-03-08T14:13:29;6.25;;;4.00;;
55362;SDS011;41244;49.242;9.060;2023-03-08T14:15:59;3.13;;;2.53;;
55362;SDS011;41244;49.242;9.060;2023-03-08T14:18:40;3.70;;;2.80;;
55362;SDS011;41244;49.242;9.060;2023-03-08T14:21:16;9.27;;;5.45;;
55362;SDS011;41244;49.242;9.060;2023-03-08T14:23:49;5.68;;;2.90;;
55362;SDS011;41244;49.242;9.060;2023-03-08T14:26:28;5.63;;;4.15;;
55362;SDS011;41244;49.242;9.060;2023-03-08T14:39:37;4.72;;;3.30;;
55362;SDS011;41244;49.242;9.060;2023-03-08T14:48:28;6.38;;;3.33;;
55362;SDS011;41244;49.242;9.060;2023-03-08T14:51:03;4.30;;;3.00;;
55362;SDS011;41244;49.242;9.060;2023-03-08T14:53:32;10.32;;;5.60;;
55362;SDS011;41244;49.242;9.060;2023-03-08T14:56:00;4.63;;;3.33;;
55362;SDS011;41244;49.242;9.060;2023-03-08T14:58:31;6.85;;;5.82;;
55362;SDS011;41244;49.242;9.060;2023-03-08T15:01:00;8.82;;;4.95;;
55362;SDS011;41244;49.242;9.060;2023-03-08T15:03:29;6.63;;;4.18;;
55362;SDS011;41244;49.242;9.060;2023-03-08T15:06:00;7.70;;;3.72;;
55362;SDS011;41244;49.242;9.060;2023-03-08T15:08:40;5.93;;;3.80;;
55362;SDS011;41244;49.242;9.060;2023-03-08T15:11:06;6.20;;;3.75;;
55362;SDS011;41244;49.242;9.060;2023-03-08T15:13:32;5.10;;;3.85;;
55362;SDS011;41244;49.242;9.060;2023-03-08T15:15:58;5.47;;;3.92;;
55362;SDS011;41244;49.242;9.060;2023-03-08T15:18:23;7.55;;;5.07;;
55362;SDS011;41244;49.242;9.060;2023-03-08T15:20:49;5.40;;;3.63;;
55362;SDS011;41244;49.242;9.060;2023-03-08T15:23:17;5.68;;;4.57;;
55362;SDS011;41244;49.242;9.060;2023-03-08T15:25:49;4.23;;;3.83;;
55362;SDS011;41244;49.242;9.060;2023-03-08T15:28:15;6.90;;;3.75;;
55362;SDS011;41244;49.242;9.060;2023-03-08T15:30:43;5.35;;;3.63;;
55362;SDS011;41244;49.242;9.060;2023-03-08T15:33:09;6.68;;;3.63;;
55362;SDS011;41244;49.242;9.060;2023-03-08T15:35:35;7.45;;;4.28;;
55362;SDS011;41244;49.242;9.060;2023-03-08T15:38:02;7.50;;;4.65;;
55362;SDS011;41244;49.242;9.060;2023-03-08T15:40:28;9.48;;;5.80;;
55362;SDS011;41244;49.242;9.060;2023-03-08T15:42:55;5.13;;;3.72;;
55362;SDS011;41244;49.242;9.060;2023-03-08T15:45:22;5.13;;;3.70;;
55362;SDS011;41244;49.242;9.060;2023-03-08T15:47:55;6.28;;;3.88;;
55362;SDS011;41244;49.242;9.060;2023-03-08T15:50:24;4.93;;;4.25;;
55362;SDS011;41244;49.242;9.060;2023-03-08T15:52:50;6.72;;;3.67;;
55362;SDS011;41244;49.242;9.060;2023-03-08T15:55:16;4.35;;;3.50;;
55362;SDS011;41244;49.242;9.060;2023-03-08T15:57:42;8.48;;;5.00;;
55362;SDS011;41244;49.242;9.060;2023-03-08T16:00:09;6.18;;;5.00;;
55362;SDS011;41244;49.242;9.060;2023-03-08T16:02:37;7.10;;;4.20;;
55362;SDS011;41244;49.242;9.060;2023-03-08T16:05:04;14.35;;;9.27;;
55362;SDS011;41244;49.242;9.060;2023-03-08T16:07:32;50.38;;;28.40;;
55362;SDS011;41244;49.242;9.060;2023-03-08T16:09:59;7.38;;;4.88;;
55362;SDS011;41244;49.242;9.060;2023-03-08T16:12:25;5.88;;;4.47;;
55362;SDS011;41244;49.242;9.060;2023-03-08T16:14:51;3.70;;;3.38;;
55362;SDS011;41244;49.242;9.060;2023-03-08T16:17:19;6.50;;;3.25;;
55362;SDS011;41244;49.242;9.060;2023-03-08T16:19:45;5.57;;;3.20;;